createdAt,value
2023-01-17T00:00:51.475Z,95966.05
2023-01-17T00:07:34.054Z,95969.27
2023-01-17T00:14:38.123Z,95972.87
2023-01-17T00:21:39.814Z,95974.60
2023-01-17T00:28:23.182Z,95970.18
2023-01-17T00:35:08.053Z,95973.44
2023-01-17T00:41:53.477Z,95977.96
2023-01-17T00:49:00.203Z,95967.05
2023-01-17T00:56:02.233Z,95974.88
2023-01-17T01:03:03.717Z,95970.27
2023-01-17T01:10:06.151Z,95978.77
2023-01-17T01:17:07.731Z,95971.67
2023-01-17T01:24:21.985Z,95985.38
2023-01-17T01:31:33.653Z,95986.05
2023-01-17T01:38:43.027Z,95985.53
2023-01-17T01:45:57.228Z,95990.30
2023-01-17T01:53:04.443Z,95991.01
2023-01-17T02:00:12.778Z,95990.23
2023-01-17T02:07:21.538Z,95997.18
2023-01-17T02:14:30.625Z,96002.46
2023-01-17T02:21:50.611Z,96005.66
2023-01-17T02:29:11.505Z,95989.55
2023-01-17T02:36:29.684Z,95987.80
2023-01-17T02:43:55.412Z,95978.77
2023-01-17T02:51:10.483Z,95981.85
2023-01-17T02:58:30.376Z,95974.27
2023-01-17T03:05:12.685Z,95965.91
2023-01-17T03:12:21.118Z,95957.32
2023-01-17T03:19:24.681Z,95963.52
2023-01-17T03:26:30.637Z,95978.67
2023-01-17T03:33:35.092Z,95994.25
2023-01-17T03:40:39.735Z,95992.94
2023-01-17T03:47:43.663Z,96001.21
2023-01-17T03:54:48.144Z,96005.27
2023-01-17T04:01:59.894Z,96007.48
2023-01-17T04:09:05.592Z,96017.13
2023-01-17T04:16:01.409Z,96012.72
2023-01-17T04:22:55.151Z,96015.11
2023-01-17T04:30:15.083Z,96022.83
2023-01-17T04:37:18.932Z,96015.76
2023-01-17T04:44:23.602Z,96022.78
2023-01-17T04:51:26.410Z,96033.48
2023-01-17T04:58:54.756Z,96033.44
2023-01-17T05:06:14.792Z,96045.59
2023-01-17T05:12:57.938Z,96058.99
2023-01-17T05:19:56.832Z,96060.27
2023-01-17T05:26:50.823Z,96059.02
2023-01-17T05:33:55.661Z,96047.78
2023-01-17T05:41:01.076Z,96033.64
2023-01-17T05:48:11.718Z,96049.18
2023-01-17T05:55:14.326Z,96050.06
2023-01-17T06:02:24.909Z,96045.75
2023-01-17T06:09:19.846Z,96054.02
2023-01-17T06:16:21.402Z,96061.57
2023-01-17T06:23:09.768Z,96075.38
2023-01-17T06:29:55.657Z,96082.13
2023-01-17T06:36:48.339Z,96081.86
2023-01-17T06:43:55.087Z,96078.89
2023-01-17T06:50:52.847Z,96083.10
2023-01-17T06:58:00.609Z,96084.95
2023-01-17T07:04:49.639Z,96082.95
2023-01-17T07:11:52.218Z,96092.40
2023-01-17T07:18:46.325Z,96089.21
2023-01-17T07:25:49.428Z,96086.89
2023-01-17T07:33:12.264Z,96083.44
2023-01-17T07:40:17.945Z,96082.89
2023-01-17T07:47:24.077Z,96095.84
2023-01-17T07:54:27.589Z,96107.07
2023-01-17T08:01:45.904Z,96113.63
2023-01-17T08:09:08.537Z,96126.44
2023-01-17T08:16:33.311Z,96138.79
2023-01-17T08:23:37.215Z,96142.26
2023-01-17T08:31:02.954Z,96148.38
2023-01-17T08:38:13.202Z,96155.32
2023-01-17T08:45:19.953Z,96156.58
2023-01-17T08:52:40.331Z,96164.89
2023-01-17T08:59:44.326Z,96175.25
2023-01-17T09:07:05.278Z,96180.58
2023-01-17T09:14:07.434Z,96177.34
2023-01-17T09:21:11.096Z,96180.05
2023-01-17T09:28:30.199Z,96186.65
2023-01-17T09:35:33.822Z,96190.33
2023-01-17T09:42:40.535Z,96196.60
2023-01-17T09:50:12.939Z,96194.02
2023-01-17T09:57:38.325Z,96193.60
2023-01-17T10:04:22.192Z,96194.64
2023-01-17T10:11:08.938Z,96187.55
2023-01-17T10:18:28.841Z,96188.11
2023-01-17T10:25:53.123Z,96182.64
2023-01-17T10:33:01.276Z,96184.92
2023-01-17T10:40:16.958Z,96189.58
2023-01-17T10:47:23.630Z,96195.41
2023-01-17T10:54:26.910Z,96203.23
2023-01-17T11:01:59.655Z,96202.07
2023-01-17T11:09:34.579Z,96192.39
2023-01-17T11:17:02.729Z,96194.55
2023-01-17T11:24:31.405Z,96191.27
2023-01-17T11:31:16.129Z,96186.42
2023-01-17T11:38:21.258Z,96187.40
2023-01-17T11:45:26.096Z,96184.81
2023-01-17T11:52:32.984Z,96175.48
2023-01-17T11:59:32.685Z,96167.35
2023-01-17T12:06:32.015Z,96158.73
2023-01-17T12:13:16.330Z,96150.98
2023-01-17T12:20:40.149Z,96147.44
2023-01-17T12:28:04.909Z,96155.73
2023-01-17T12:35:27.926Z,96161.21
2023-01-17T12:42:28.719Z,96166.98
2023-01-17T12:49:18.307Z,96169.98
2023-01-17T12:56:04.413Z,96164.15
2023-01-17T13:03:20.831Z,96162.35
2023-01-17T13:10:23.380Z,96162.96
2023-01-17T13:17:26.379Z,96156.59
2023-01-17T13:24:37.482Z,96157.92
2023-01-17T13:31:43.106Z,96162.08
2023-01-17T13:38:50.112Z,96179.42
2023-01-17T13:45:25.239Z,96185.90
2023-01-17T13:52:45.303Z,96191.16
2023-01-17T14:00:07.349Z,96213.54
2023-01-17T14:06:47.416Z,96214.17
2023-01-17T14:13:23.370Z,96245.23
2023-01-17T14:20:25.371Z,96264.52
2023-01-17T14:27:28.361Z,96280.13
2023-01-17T14:34:30.885Z,96278.41
2023-01-17T14:41:40.703Z,96295.48
2023-01-17T14:48:20.358Z,96296.22
2023-01-17T14:55:29.957Z,96296.63
2023-01-17T15:02:12.996Z,96309.29
2023-01-17T15:07:16.469Z,96319.39
2023-01-17T15:13:43.134Z,96318.95
2023-01-17T15:20:08.470Z,96313.85
2023-01-17T15:26:29.502Z,96300.39
2023-01-17T15:32:33.693Z,96295.06
2023-01-17T15:38:38.964Z,96294.16
2023-01-17T15:44:49.442Z,96288.53
2023-01-17T15:50:39.903Z,96286.91
2023-01-17T15:57:00.962Z,96274.21
2023-01-17T16:03:40.511Z,96279.25
2023-01-17T16:10:01.531Z,96272.74
2023-01-17T16:16:22.770Z,96255.77
2023-01-17T16:22:43.913Z,96250.33
2023-01-17T16:29:04.959Z,96265.20
2023-01-17T16:35:26.063Z,96262.17
2023-01-17T16:41:47.287Z,96262.77
2023-01-17T16:48:08.278Z,96253.34
2023-01-17T16:54:29.715Z,96238.22
2023-01-17T16:59:51.962Z,96228.73
2023-01-17T17:05:53.488Z,96218.48
2023-01-17T17:12:18.215Z,96225.52
2023-01-17T17:18:19.236Z,96214.11
2023-01-17T17:24:41.195Z,96213.80
2023-01-17T17:31:02.346Z,96217.09
2023-01-17T17:37:23.992Z,96212.39
2023-01-17T17:43:44.962Z,96230.38
2023-01-17T17:49:06.421Z,96247.42
2023-01-17T17:54:52.199Z,96249.36
2023-01-17T18:00:54.902Z,96258.13
2023-01-17T18:06:56.440Z,96248.92
2023-01-17T18:13:06.375Z,96256.38
2023-01-17T18:19:08.245Z,96273.75
2023-01-17T18:25:11.029Z,96274.13
2023-01-17T18:31:12.221Z,96267.73
2023-01-17T18:37:13.360Z,96275.40
2023-01-17T18:43:14.483Z,96275.74
2023-01-17T18:48:36.427Z,96278.05
2023-01-17T18:53:39.229Z,96278.11
2023-01-17T18:59:40.312Z,96279.40
2023-01-17T19:06:01.706Z,96282.17
2023-01-17T19:12:27.327Z,96273.12
2023-01-17T19:18:48.640Z,96258.27
2023-01-17T19:25:09.668Z,96242.86
2023-01-17T19:31:30.849Z,96226.19
2023-01-17T19:37:32.041Z,96221.15
2023-01-17T19:43:33.701Z,96207.52
2023-01-17T19:48:55.450Z,96201.98
2023-01-17T19:53:59.383Z,96207.75
2023-01-17T19:59:02.077Z,96201.42
2023-01-17T20:04:04.365Z,96192.52
2023-01-17T20:10:05.893Z,96192.27
2023-01-17T20:16:27.161Z,96192.82
2023-01-17T20:22:48.751Z,96199.34
2023-01-17T20:29:09.726Z,96203.16
2023-01-17T20:35:30.834Z,96197.26
2023-01-17T20:41:01.626Z,96185.27
2023-01-17T20:46:06.512Z,96178.75
2023-01-17T20:51:09.943Z,96186.66
2023-01-17T20:56:13.853Z,96192.81
2023-01-17T21:02:15.044Z,96200.88
2023-01-17T21:07:42.095Z,96196.88
2023-01-17T21:12:44.050Z,96183.84
2023-01-17T21:18:46.280Z,96167.02
2023-01-17T21:25:07.810Z,96156.73
2023-01-17T21:31:44.142Z,96174.27
2023-01-17T21:37:05.280Z,96187.59
2023-01-17T21:43:06.396Z,96188.61
2023-01-17T21:49:27.602Z,96185.20
2023-01-17T21:55:47.224Z,96188.14
2023-01-17T22:01:51.137Z,96189.25
2023-01-17T22:08:11.032Z,96185.77
2023-01-17T22:14:32.033Z,96184.28
2023-01-17T22:20:53.433Z,96173.93
2023-01-17T22:27:14.953Z,96170.63
2023-01-17T22:32:36.377Z,96165.98
2023-01-17T22:37:37.674Z,96156.20
2023-01-17T22:42:39.196Z,96145.38
2023-01-17T22:47:42.809Z,96128.79
2023-01-17T22:53:43.894Z,96117.54
2023-01-17T23:00:04.737Z,96114.41
2023-01-17T23:06:25.714Z,96104.02
2023-01-17T23:12:46.782Z,96089.89
2023-01-17T23:19:06.915Z,96090.70
2023-01-17T23:24:28.130Z,96083.39
2023-01-17T23:29:29.524Z,96070.02
2023-01-17T23:34:30.817Z,96069.17
2023-01-17T23:39:32.452Z,96070.21
2023-01-17T23:45:33.599Z,96063.50
2023-01-17T23:52:00.913Z,96055.83
2023-01-17T23:58:23.361Z,96048.97
